createdAt,value
2022-10-22T00:00:35.600Z,74.43
2022-10-22T00:03:03.301Z,73.80
2022-10-22T00:05:30.740Z,73.91
2022-10-22T00:07:58.245Z,74.88
2022-10-22T00:10:25.787Z,73.97
2022-10-22T00:12:53.303Z,74.00
2022-10-22T00:15:20.916Z,74.27
2022-10-22T00:17:49.784Z,74.61
2022-10-22T00:20:17.404Z,74.33
2022-10-22T00:22:44.896Z,74.44
2022-10-22T00:25:12.315Z,74.55
2022-10-22T00:27:39.912Z,74.63
2022-10-22T00:30:09.177Z,74.53
2022-10-22T00:32:36.867Z,76.14
2022-10-22T00:35:05.260Z,75.31
2022-10-22T00:37:32.760Z,75.12
2022-10-22T00:40:00.295Z,75.88
2022-10-22T00:42:30.404Z,75.39
2022-10-22T00:45:04.500Z,76.72
2022-10-22T00:47:37.516Z,78.28
2022-10-22T00:50:08.096Z,79.60
2022-10-22T00:52:36.040Z,79.42
2022-10-22T00:55:04.992Z,79.22
2022-10-22T00:57:34.481Z,79.61
2022-10-22T01:00:02.339Z,78.14
2022-10-22T01:02:29.840Z,79.48
2022-10-22T01:04:57.324Z,78.95
2022-10-22T01:07:26.182Z,78.74
2022-10-22T01:10:00.253Z,79.61
2022-10-22T01:13:04.896Z,79.95
2022-10-22T01:15:38.213Z,79.08
2022-10-22T01:18:12.047Z,79.35
2022-10-22T01:20:51.604Z,80.23
2022-10-22T01:24:12.755Z,79.58
2022-10-22T01:27:00.393Z,79.97
2022-10-22T01:29:37.603Z,80.03
2022-10-22T01:32:10.478Z,79.76
2022-10-22T01:34:41.816Z,80.52
2022-10-22T01:37:12.363Z,80.00
2022-10-22T01:39:42.551Z,80.40
2022-10-22T01:42:12.787Z,79.54
2022-10-22T01:44:40.379Z,79.44
2022-10-22T01:47:07.775Z,79.46
2022-10-22T01:49:59.847Z,79.72
2022-10-22T01:52:53.406Z,79.94
2022-10-22T01:55:35.888Z,78.75
2022-10-22T01:58:12.314Z,79.49
2022-10-22T02:00:55.732Z,78.71
2022-10-22T02:03:38.980Z,79.73
2022-10-22T02:06:13.098Z,78.95
2022-10-22T02:08:42.002Z,79.59
2022-10-22T02:11:12.159Z,80.26
2022-10-22T02:13:55.009Z,83.70
2022-10-22T02:16:29.453Z,80.84
2022-10-22T02:19:01.093Z,81.42
2022-10-22T02:21:28.809Z,80.85
2022-10-22T02:23:56.679Z,81.17
2022-10-22T02:26:39.329Z,82.96
2022-10-22T02:29:15.687Z,84.80
2022-10-22T02:31:45.620Z,85.22
2022-10-22T02:34:19.548Z,86.20
2022-10-22T02:36:50.328Z,87.45
2022-10-22T02:39:20.554Z,86.22
2022-10-22T02:41:48.876Z,86.73
2022-10-22T02:44:20.302Z,88.70
2022-10-22T02:46:48.784Z,89.86
2022-10-22T02:49:16.389Z,89.62
2022-10-22T02:51:43.788Z,89.95
2022-10-22T02:54:11.443Z,91.40
2022-10-22T02:56:39.028Z,92.59
2022-10-22T02:59:06.614Z,91.60
2022-10-22T03:01:34.085Z,90.85
2022-10-22T03:04:01.708Z,89.83
2022-10-22T03:06:29.294Z,89.23
2022-10-22T03:08:56.870Z,91.28
2022-10-22T03:11:24.401Z,91.14
2022-10-22T03:13:52.047Z,89.95
2022-10-22T03:16:19.635Z,90.60
2022-10-22T03:18:47.083Z,93.77
2022-10-22T03:21:37.956Z,94.33
2022-10-22T03:24:13.550Z,92.31
2022-10-22T03:26:43.152Z,90.75
2022-10-22T03:29:13.060Z,90.09
2022-10-22T03:31:40.529Z,91.63
2022-10-22T03:34:08.131Z,93.05
2022-10-22T03:36:35.715Z,93.35
2022-10-22T03:39:05.324Z,93.45
2022-10-22T03:41:33.154Z,93.13
2022-10-22T03:44:03.719Z,91.72
2022-10-22T03:46:31.409Z,93.06
2022-10-22T03:48:58.896Z,94.39
2022-10-22T03:51:29.321Z,95.96
2022-10-22T03:53:56.928Z,92.09
2022-10-22T03:56:24.428Z,93.48
2022-10-22T03:58:52.072Z,93.69
2022-10-22T04:01:19.534Z,95.17
2022-10-22T04:03:47.064Z,95.52
2022-10-22T04:06:14.576Z,94.64
2022-10-22T04:08:44.073Z,94.59
2022-10-22T04:11:13.386Z,95.63
2022-10-22T04:13:41.072Z,96.92
2022-10-22T04:16:10.100Z,96.87
2022-10-22T04:18:38.669Z,96.29
2022-10-22T04:21:07.817Z,95.36
2022-10-22T04:23:35.731Z,98.51
2022-10-22T04:26:06.624Z,98.66
2022-10-22T04:28:34.863Z,97.35
2022-10-22T04:31:11.078Z,96.85
2022-10-22T04:33:39.406Z,97.23
2022-10-22T04:36:18.469Z,97.97
2022-10-22T04:38:48.100Z,96.84
2022-10-22T04:41:18.835Z,96.08
2022-10-22T04:43:47.210Z,96.61
2022-10-22T04:46:16.579Z,99.25
2022-10-22T04:48:45.203Z,99.34
2022-10-22T04:51:18.543Z,97.93
2022-10-22T04:53:46.833Z,97.02
2022-10-22T04:56:20.624Z,98.87
2022-10-22T04:58:50.490Z,97.51
2022-10-22T05:01:20.447Z,97.08
2022-10-22T05:03:49.437Z,96.89
2022-10-22T05:06:17.688Z,99.19
2022-10-22T05:08:45.350Z,99.63
2022-10-22T05:11:15.337Z,100.00
2022-10-22T05:13:43.000Z,98.75
2022-10-22T05:16:11.132Z,97.89
2022-10-22T05:18:41.097Z,95.00
2022-10-22T05:21:16.687Z,96.52
2022-10-22T05:23:45.454Z,98.29
2022-10-22T05:26:15.865Z,97.14
2022-10-22T05:28:43.606Z,96.07
2022-10-22T05:31:12.742Z,95.93
2022-10-22T05:33:41.158Z,96.95
2022-10-22T05:36:12.331Z,97.73
2022-10-22T05:38:39.937Z,94.88
2022-10-22T05:41:12.902Z,96.02
2022-10-22T05:43:41.686Z,94.99
2022-10-22T05:46:17.622Z,95.65
2022-10-22T05:49:02.816Z,96.53
2022-10-22T05:51:32.565Z,95.45
2022-10-22T05:54:02.829Z,93.87
2022-10-22T05:56:34.426Z,93.36
2022-10-22T06:01:31.693Z,93.98
2022-10-22T06:04:01.790Z,94.19
2022-10-22T06:06:34.192Z,95.09
2022-10-22T06:09:11.223Z,94.55
2022-10-22T06:11:39.055Z,93.67
2022-10-22T06:14:06.526Z,92.35
2022-10-22T06:16:33.944Z,93.72
2022-10-22T06:19:02.241Z,93.38
2022-10-22T06:21:30.460Z,92.36
2022-10-22T06:23:59.759Z,92.79
2022-10-22T06:26:27.127Z,92.46
2022-10-22T06:28:56.109Z,91.15
2022-10-22T06:31:25.401Z,92.75
2022-10-22T06:33:53.393Z,92.75
2022-10-22T06:36:23.294Z,91.81
2022-10-22T06:38:54.936Z,96.28
2022-10-22T06:41:27.050Z,96.20
2022-10-22T06:43:57.816Z,94.59
2022-10-22T06:46:26.654Z,94.64
2022-10-22T06:48:59.857Z,92.51
2022-10-22T06:51:28.005Z,91.12
2022-10-22T06:53:58.594Z,89.17
2022-10-22T06:56:28.795Z,89.19
2022-10-22T06:58:57.834Z,89.34
2022-10-22T07:01:28.668Z,88.56
2022-10-22T07:03:56.190Z,87.33
2022-10-22T07:06:24.988Z,86.78
2022-10-22T07:08:53.525Z,87.22
2022-10-22T07:11:23.808Z,87.13
2022-10-22T07:13:51.985Z,85.87
2022-10-22T07:16:19.771Z,84.47
2022-10-22T07:18:47.707Z,86.02
2022-10-22T07:21:17.453Z,85.02
2022-10-22T07:23:45.515Z,83.20
2022-10-22T07:26:17.639Z,84.99
2022-10-22T07:28:45.327Z,83.97
2022-10-22T07:31:14.218Z,84.13
2022-10-22T07:33:41.886Z,82.69
2022-10-22T07:36:17.269Z,87.24
2022-10-22T07:38:51.920Z,88.44
2022-10-22T07:41:19.458Z,84.56
2022-10-22T07:43:46.963Z,79.64
2022-10-22T07:46:14.326Z,79.29
2022-10-22T07:48:41.780Z,79.53
2022-10-22T07:51:09.282Z,79.23
2022-10-22T07:53:36.937Z,79.29
2022-10-22T07:56:04.584Z,78.50
2022-10-22T07:58:31.986Z,75.76
2022-10-22T08:01:05.798Z,74.83
2022-10-22T08:03:33.749Z,71.31
2022-10-22T08:06:01.180Z,66.46
2022-10-22T08:08:30.866Z,66.39
2022-10-22T08:10:59.971Z,67.87
2022-10-22T08:13:28.436Z,67.54
2022-10-22T08:15:57.578Z,67.57
2022-10-22T08:18:25.527Z,66.77
2022-10-22T08:20:53.614Z,66.52
2022-10-22T08:23:25.866Z,66.25
2022-10-22T08:26:06.157Z,69.02
2022-10-22T08:28:39.669Z,68.36
2022-10-22T08:31:08.615Z,68.71
2022-10-22T08:33:36.765Z,73.83
2022-10-22T08:36:04.646Z,72.89
2022-10-22T08:38:31.951Z,66.16
2022-10-22T08:41:10.133Z,67.95
2022-10-22T08:43:58.982Z,69.36
2022-10-22T08:46:41.198Z,68.96
2022-10-22T08:49:18.587Z,73.50
2022-10-22T08:51:46.331Z,73.09
2022-10-22T08:54:14.807Z,76.50
2022-10-22T08:56:45.881Z,77.95
2022-10-22T08:59:43.391Z,83.01
2022-10-22T09:02:32.221Z,81.00
2022-10-22T09:05:11.616Z,80.95
2022-10-22T09:07:44.045Z,79.68
2022-10-22T09:10:13.036Z,78.19
2022-10-22T09:12:40.800Z,78.63
2022-10-22T09:15:13.891Z,77.05
2022-10-22T09:17:54.288Z,76.24
2022-10-22T09:20:34.734Z,77.17
2022-10-22T09:23:20.907Z,76.71
2022-10-22T09:25:51.284Z,74.45
2022-10-22T09:28:19.198Z,73.70
2022-10-22T09:30:46.696Z,73.03
2022-10-22T09:33:26.453Z,69.61
2022-10-22T09:36:03.277Z,69.44
2022-10-22T09:38:33.898Z,69.34
2022-10-22T09:41:03.873Z,71.04
2022-10-22T09:43:33.169Z,70.97
2022-10-22T09:46:03.118Z,71.04
2022-10-22T09:48:42.524Z,70.54
2022-10-22T09:51:35.816Z,67.71
2022-10-22T09:54:15.372Z,64.24
2022-10-22T09:56:48.465Z,58.57
2022-10-22T09:59:17.590Z,62.15
2022-10-22T10:01:45.529Z,62.12
2022-10-22T10:04:16.673Z,61.36
2022-10-22T10:06:45.379Z,61.88
2022-10-22T10:09:21.672Z,63.54
2022-10-22T10:11:53.842Z,63.43
2022-10-22T10:14:48.423Z,61.51
2022-10-22T10:17:36.055Z,61.35
2022-10-22T10:20:21.959Z,63.56
2022-10-22T10:23:01.299Z,62.55
2022-10-22T10:26:03.826Z,63.66
2022-10-22T10:29:18.463Z,63.94
2022-10-22T10:31:57.874Z,64.87
2022-10-22T10:34:43.816Z,65.68
2022-10-22T10:37:16.287Z,64.55
2022-10-22T10:40:21.627Z,63.11
2022-10-22T10:42:58.439Z,65.13
2022-10-22T10:45:35.317Z,65.13
2022-10-22T10:48:14.680Z,64.93
2022-10-22T10:51:26.975Z,65.12
2022-10-22T10:54:18.556Z,65.66
2022-10-22T10:56:54.451Z,63.50
2022-10-22T10:59:58.979Z,61.85
2022-10-22T11:02:54.105Z,63.84
2022-10-22T11:05:47.932Z,62.72
2022-10-22T11:08:34.346Z,62.04
2022-10-22T11:11:12.579Z,62.25
2022-10-22T11:14:09.631Z,60.99
2022-10-22T11:16:48.101Z,64.02
2022-10-22T11:19:53.750Z,62.44
2022-10-22T11:22:34.753Z,58.53
2022-10-22T11:25:18.210Z,59.54
2022-10-22T11:27:48.414Z,58.46
2022-10-22T11:30:21.198Z,61.79
2022-10-22T11:33:15.158Z,61.49
2022-10-22T11:35:45.293Z,61.96
2022-10-22T11:38:17.374Z,64.20
2022-10-22T11:40:56.698Z,59.97
2022-10-22T11:43:51.451Z,58.55
2022-10-22T11:46:18.890Z,59.15
2022-10-22T11:49:03.138Z,59.12
2022-10-22T11:51:36.180Z,62.18
2022-10-22T11:54:29.295Z,61.21
2022-10-22T11:57:14.873Z,60.48
2022-10-22T11:59:49.699Z,61.51
2022-10-22T12:02:32.159Z,62.42
2022-10-22T12:05:24.103Z,62.95
2022-10-22T12:08:02.653Z,64.66
2022-10-22T12:10:48.271Z,65.01
2022-10-22T12:13:25.817Z,63.46
2022-10-22T12:15:58.843Z,66.48
2022-10-22T12:18:35.310Z,69.11
2022-10-22T12:21:02.983Z,69.19
2022-10-22T12:23:34.284Z,68.15
2022-10-22T12:26:04.362Z,68.48
2022-10-22T12:28:39.985Z,70.12
2022-10-22T12:31:16.601Z,72.38
2022-10-22T12:33:44.378Z,72.22
2022-10-22T12:36:18.642Z,70.33
2022-10-22T12:38:47.365Z,69.87
2022-10-22T12:41:15.283Z,68.29
2022-10-22T12:43:42.704Z,67.13
2022-10-22T12:46:16.356Z,66.50
2022-10-22T12:48:45.767Z,66.56
2022-10-22T12:51:18.717Z,65.84
2022-10-22T12:53:54.474Z,63.65
2022-10-22T12:56:28.841Z,63.20
2022-10-22T12:59:02.735Z,64.26
2022-10-22T13:01:36.394Z,62.43
2022-10-22T13:04:12.767Z,61.29
2022-10-22T13:06:49.126Z,60.85
2022-10-22T13:09:25.161Z,60.90
2022-10-22T13:12:04.951Z,60.31
2022-10-22T13:14:34.906Z,60.29
2022-10-22T13:17:13.393Z,59.42
2022-10-22T13:19:45.370Z,60.07
2022-10-22T13:22:52.503Z,59.95
2022-10-22T13:25:26.920Z,60.03
2022-10-22T13:28:00.743Z,59.82
2022-10-22T13:30:36.551Z,61.14
2022-10-22T13:33:07.227Z,61.75
2022-10-22T13:35:37.624Z,63.54
2022-10-22T13:38:20.098Z,61.58
2022-10-22T13:40:47.997Z,62.16
2022-10-22T13:43:16.348Z,61.86
2022-10-22T13:45:45.484Z,61.93
2022-10-22T13:48:15.480Z,63.36
2022-10-22T13:50:43.226Z,64.02
2022-10-22T13:53:18.863Z,63.70
2022-10-22T13:55:46.938Z,62.83
2022-10-22T13:58:19.967Z,64.78
2022-10-22T14:00:50.454Z,64.17
2022-10-22T14:03:21.565Z,65.48
2022-10-22T14:05:49.448Z,66.03
2022-10-22T14:08:20.247Z,66.53
2022-10-22T14:10:48.179Z,65.18
2022-10-22T14:13:17.296Z,67.91
2022-10-22T14:15:46.617Z,66.40
2022-10-22T14:18:24.258Z,65.70
2022-10-22T14:20:56.996Z,64.54
2022-10-22T14:23:27.824Z,65.08
2022-10-22T14:25:56.014Z,65.04
2022-10-22T14:28:23.585Z,65.68
2022-10-22T14:30:52.152Z,64.89
2022-10-22T14:33:31.272Z,66.34
2022-10-22T14:36:00.774Z,67.84
2022-10-22T14:38:29.283Z,67.65
2022-10-22T14:40:57.732Z,65.18
2022-10-22T14:43:31.286Z,65.31
2022-10-22T14:45:58.976Z,64.96
2022-10-22T14:48:26.439Z,65.73
2022-10-22T14:50:54.830Z,65.40
2022-10-22T14:53:22.315Z,65.69
2022-10-22T14:55:51.526Z,65.27
2022-10-22T14:58:18.938Z,65.77
2022-10-22T15:00:46.341Z,64.73
2022-10-22T15:03:13.892Z,65.41
2022-10-22T15:05:44.423Z,65.17
2022-10-22T15:08:13.320Z,66.36
2022-10-22T15:10:41.619Z,68.72
2022-10-22T15:13:09.536Z,66.69
2022-10-22T15:15:40.371Z,67.29
2022-10-22T15:18:07.989Z,67.74
2022-10-22T15:20:35.499Z,67.23
2022-10-22T15:23:03.021Z,67.71
2022-10-22T15:25:30.635Z,67.54
2022-10-22T15:28:00.824Z,69.55
2022-10-22T15:30:32.125Z,69.63
2022-10-22T15:32:59.586Z,69.07
2022-10-22T15:35:28.729Z,69.13
2022-10-22T15:37:56.227Z,69.38
2022-10-22T15:40:23.568Z,68.58
2022-10-22T15:42:50.908Z,68.02
2022-10-22T15:45:18.305Z,68.73
2022-10-22T15:47:47.664Z,69.90
2022-10-22T15:50:15.713Z,69.47
2022-10-22T15:52:43.102Z,70.56
2022-10-22T15:55:10.762Z,70.92
2022-10-22T15:57:39.401Z,70.70
2022-10-22T16:00:08.144Z,71.71
2022-10-22T16:02:42.586Z,73.73
2022-10-22T16:05:10.066Z,74.15
2022-10-22T16:07:37.564Z,73.95
2022-10-22T16:10:07.669Z,75.15
2022-10-22T16:12:36.064Z,75.30
2022-10-22T16:15:03.752Z,75.51
2022-10-22T16:17:31.241Z,76.03
2022-10-22T16:19:58.825Z,76.55
2022-10-22T16:22:26.199Z,77.09
2022-10-22T16:24:53.536Z,76.45
2022-10-22T16:27:20.903Z,78.61
2022-10-22T16:29:48.283Z,78.80
2022-10-22T16:32:16.914Z,77.79
2022-10-22T16:34:44.274Z,78.35
2022-10-22T16:37:11.676Z,79.11
2022-10-22T16:39:38.988Z,80.18
2022-10-22T16:42:06.743Z,79.76
2022-10-22T16:44:34.222Z,79.76
2022-10-22T16:47:01.575Z,80.27
2022-10-22T16:49:29.086Z,81.34
2022-10-22T16:51:56.443Z,81.14
2022-10-22T16:54:23.951Z,81.73
2022-10-22T16:56:51.543Z,81.11
2022-10-22T16:59:18.938Z,79.48
2022-10-22T17:01:46.362Z,79.38
2022-10-22T17:04:13.912Z,79.83
2022-10-22T17:06:43.125Z,80.87
2022-10-22T17:09:15.261Z,80.39
2022-10-22T17:11:46.509Z,79.08
2022-10-22T17:14:14.459Z,79.48
2022-10-22T17:16:41.934Z,83.36
2022-10-22T17:19:13.145Z,81.70
2022-10-22T17:21:40.561Z,83.55
2022-10-22T17:24:08.063Z,82.94
2022-10-22T17:26:37.445Z,84.39
2022-10-22T17:29:05.017Z,86.43
2022-10-22T17:31:37.583Z,88.19
2022-10-22T17:34:07.327Z,85.65
2022-10-22T17:36:36.289Z,87.48
2022-10-22T17:39:08.231Z,85.52
2022-10-22T17:41:37.655Z,85.18
2022-10-22T17:44:07.126Z,84.54
2022-10-22T17:46:34.646Z,84.47
2022-10-22T17:49:04.768Z,84.24
2022-10-22T17:51:32.180Z,83.30
2022-10-22T17:53:59.591Z,81.86
2022-10-22T17:56:30.056Z,82.97
2022-10-22T17:58:59.659Z,84.24
2022-10-22T18:01:30.209Z,84.71
2022-10-22T18:04:02.846Z,83.96
2022-10-22T18:06:30.660Z,84.39
2022-10-22T18:08:58.506Z,83.59
2022-10-22T18:11:27.697Z,84.56
2022-10-22T18:13:57.376Z,86.17
2022-10-22T18:16:25.836Z,87.24
2022-10-22T18:18:55.357Z,87.77
2022-10-22T18:21:24.909Z,88.19
2022-10-22T18:23:52.708Z,87.64
2022-10-22T18:26:24.263Z,89.25
2022-10-22T18:28:55.307Z,91.25
2022-10-22T18:31:24.644Z,88.78
2022-10-22T18:36:22.529Z,87.19
2022-10-22T18:38:57.920Z,86.79
2022-10-22T18:41:26.239Z,87.54
2022-10-22T18:43:55.823Z,86.89
2022-10-22T18:46:24.078Z,89.47
2022-10-22T18:48:55.906Z,89.46
2022-10-22T18:51:24.842Z,89.43
2022-10-22T18:54:05.247Z,89.05
2022-10-22T18:56:40.726Z,88.54
2022-10-22T18:59:15.177Z,89.95
2022-10-22T19:01:42.564Z,88.57
2022-10-22T19:04:10.187Z,88.40
2022-10-22T19:06:39.783Z,88.77
2022-10-22T19:09:10.438Z,88.03
2022-10-22T19:11:37.955Z,87.34
2022-10-22T19:14:05.392Z,87.97
2022-10-22T19:16:34.843Z,88.35
2022-10-22T19:19:05.128Z,89.43
2022-10-22T19:21:33.295Z,89.48
2022-10-22T19:24:01.497Z,89.54
2022-10-22T19:26:30.598Z,90.27
2022-10-22T19:28:59.757Z,88.96
2022-10-22T19:31:30.070Z,89.14
2022-10-22T19:33:59.620Z,89.41
2022-10-22T19:36:28.957Z,90.04
2022-10-22T19:38:57.472Z,89.33
2022-10-22T19:41:27.583Z,89.46
2022-10-22T19:43:57.027Z,90.76
2022-10-22T19:46:25.809Z,90.61
2022-10-22T19:48:56.281Z,90.56
2022-10-22T19:51:30.031Z,91.52
2022-10-22T19:54:01.671Z,91.25
2022-10-22T19:56:29.932Z,90.57
2022-10-22T19:58:58.498Z,90.09
2022-10-22T20:01:26.861Z,90.95
2022-10-22T20:03:54.672Z,90.17
2022-10-22T20:06:22.201Z,90.45
2022-10-22T20:08:52.389Z,91.22
2022-10-22T20:11:26.203Z,92.43
2022-10-22T20:13:54.720Z,94.50
2022-10-22T20:16:24.448Z,94.68
2022-10-22T20:18:52.968Z,94.08
2022-10-22T20:21:20.924Z,92.63
2022-10-22T20:23:52.451Z,93.34
2022-10-22T20:26:21.220Z,94.02
2022-10-22T20:28:48.641Z,93.40
2022-10-22T20:31:19.904Z,90.58
2022-10-22T20:33:48.328Z,90.57
2022-10-22T20:36:21.216Z,90.62
2022-10-22T20:38:49.186Z,92.22
2022-10-22T20:41:22.219Z,92.20
2022-10-22T20:43:51.164Z,94.27
2022-10-22T20:46:29.863Z,92.25
2022-10-22T20:49:04.136Z,94.21
2022-10-22T20:51:32.134Z,96.42
2022-10-22T20:53:59.607Z,94.49
2022-10-22T20:56:27.864Z,93.24
2022-10-22T20:59:04.632Z,93.27
2022-10-22T21:01:53.411Z,94.64
2022-10-22T21:04:21.809Z,94.09
2022-10-22T21:06:50.525Z,94.05
2022-10-22T21:09:18.075Z,95.50
2022-10-22T21:11:46.246Z,96.67
2022-10-22T21:14:32.691Z,95.69
2022-10-22T21:17:00.082Z,94.65
2022-10-22T21:19:27.855Z,94.68
2022-10-22T21:21:55.420Z,93.87
2022-10-22T21:24:26.446Z,97.72
2022-10-22T21:26:54.315Z,97.37
2022-10-22T21:29:21.980Z,96.03
2022-10-22T21:31:49.643Z,94.92
2022-10-22T21:34:17.499Z,95.13
2022-10-22T21:36:44.997Z,94.75
2022-10-22T21:39:13.570Z,93.96
2022-10-22T21:41:41.067Z,93.16
2022-10-22T21:44:08.537Z,92.83
2022-10-22T21:46:35.980Z,92.61
2022-10-22T21:49:05.356Z,93.61
2022-10-22T21:51:35.846Z,92.98
2022-10-22T21:54:03.437Z,95.15
2022-10-22T21:56:33.595Z,95.22
2022-10-22T21:59:02.368Z,96.69
2022-10-22T22:01:30.190Z,95.12
2022-10-22T22:03:57.771Z,93.15
2022-10-22T22:06:29.543Z,93.07
2022-10-22T22:08:58.730Z,93.11
2022-10-22T22:11:28.073Z,92.11
2022-10-22T22:13:57.497Z,92.14
2022-10-22T22:16:31.025Z,91.67
2022-10-22T22:19:00.349Z,92.50
2022-10-22T22:21:28.798Z,91.56
2022-10-22T22:23:57.278Z,90.38
2022-10-22T22:26:29.661Z,89.80
2022-10-22T22:28:59.997Z,88.76
2022-10-22T22:31:30.527Z,88.71
2022-10-22T22:34:03.024Z,88.34
2022-10-22T22:36:39.396Z,88.03
2022-10-22T22:39:12.293Z,88.76
2022-10-22T22:41:40.319Z,87.42
2022-10-22T22:44:10.746Z,87.56
2022-10-22T22:46:38.446Z,87.56
2022-10-22T22:49:06.415Z,88.58
2022-10-22T22:51:34.206Z,88.07
2022-10-22T22:54:02.165Z,88.27
2022-10-22T22:56:32.190Z,87.30
2022-10-22T22:58:59.689Z,87.47
2022-10-22T23:01:36.265Z,89.33
2022-10-22T23:04:07.258Z,87.94
2022-10-22T23:06:37.147Z,86.10
2022-10-22T23:09:08.913Z,86.15
2022-10-22T23:11:36.643Z,84.82
2022-10-22T23:14:06.397Z,86.03
2022-10-22T23:16:36.969Z,85.06
2022-10-22T23:19:05.679Z,85.36
2022-10-22T23:21:35.957Z,87.12
2022-10-22T23:24:07.738Z,86.16
2022-10-22T23:26:38.112Z,85.33
2022-10-22T23:29:11.895Z,84.95
2022-10-22T23:31:39.538Z,84.62
2022-10-22T23:34:07.848Z,84.89
2022-10-22T23:36:36.897Z,85.10
2022-10-22T23:39:10.238Z,84.36
2022-10-22T23:41:38.463Z,84.04
2022-10-22T23:44:07.647Z,86.25
2022-10-22T23:46:35.703Z,87.15
2022-10-22T23:49:03.259Z,85.14
2022-10-22T23:51:30.648Z,84.63
2022-10-22T23:54:00.629Z,85.24
2022-10-22T23:56:29.423Z,86.07
2022-10-22T23:58:57.733Z,85.80
